sensor_id;sensor_type;location;lat;lon;timestamp;temperature;humidity
23703;DHT22;12030;50.376;8.762;2023-01-19T00:02:18;-1.60;99.90
23703;DHT22;12030;50.376;8.762;2023-01-19T00:04:44;-1.70;99.90
23703;DHT22;12030;50.376;8.762;2023-01-19T00:07:09;-1.70;99.90
23703;DHT22;12030;50.376;8.762;2023-01-19T00:09:35;-1.60;99.90
23703;DHT22;12030;50.376;8.762;2023-01-19T00:12:03;-1.70;99.90
23703;DHT22;12030;50.376;8.762;2023-01-19T00:14:29;-1.60;99.90
23703;DHT22;12030;50.376;8.762;2023-01-19T00:16:55;-1.60;99.90
23703;DHT22;12030;50.376;8.762;2023-01-19T00:19:20;-1.50;99.90
23703;DHT22;12030;50.376;8.762;2023-01-19T00:21:46;-1.50;99.90
23703;DHT22;12030;50.376;8.762;2023-01-19T00:24:11;-1.50;99.90
23703;DHT22;12030;50.376;8.762;2023-01-19T00:26:38;-1.50;99.90
23703;DHT22;12030;50.376;8.762;2023-01-19T00:29:05;-1.50;99.90
23703;DHT22;12030;50.376;8.762;2023-01-19T00:31:32;-1.50;99.90
23703;DHT22;12030;50.376;8.762;2023-01-19T00:34:00;-1.60;99.90
23703;DHT22;12030;50.376;8.762;2023-01-19T00:36:26;-1.50;99.90
23703;DHT22;12030;50.376;8.762;2023-01-19T00:38:52;-1.40;99.90
23703;DHT22;12030;50.376;8.762;2023-01-19T00:41:17;-1.50;99.90
23703;DHT22;12030;50.376;8.762;2023-01-19T00:43:43;-1.50;99.90
23703;DHT22;12030;50.376;8.762;2023-01-19T00:46:09;-1.40;99.90
23703;DHT22;12030;50.376;8.762;2023-01-19T00:48:34;-1.50;99.90
23703;DHT22;12030;50.376;8.762;2023-01-19T00:51:00;-1.50;99.90
23703;DHT22;12030;50.376;8.762;2023-01-19T00:53:26;-1.40;99.90
23703;DHT22;12030;50.376;8.762;2023-01-19T00:55:56;-1.40;99.90
23703;DHT22;12030;50.376;8.762;2023-01-19T00:58:22;-1.30;99.90
23703;DHT22;12030;50.376;8.762;2023-01-19T01:00:47;-1.30;99.90
23703;DHT22;12030;50.376;8.762;2023-01-19T01:03:13;-1.40;99.90
23703;DHT22;12030;50.376;8.762;2023-01-19T01:05:40;-1.30;99.90
23703;DHT22;12030;50.376;8.762;2023-01-19T01:08:06;-1.40;99.90
23703;DHT22;12030;50.376;8.762;2023-01-19T01:10:32;-1.40;99.90
23703;DHT22;12030;50.376;8.762;2023-01-19T01:12:57;-1.30;99.90
23703;DHT22;12030;50.376;8.762;2023-01-19T01:15:23;-1.30;99.90
23703;DHT22;12030;50.376;8.762;2023-01-19T01:17:50;-1.30;99.90
23703;DHT22;12030;50.376;8.762;2023-01-19T01:20:22;-1.40;99.90
23703;DHT22;12030;50.376;8.762;2023-01-19T01:22:50;-1.40;99.90
23703;DHT22;12030;50.376;8.762;2023-01-19T01:25:18;-1.40;99.90
23703;DHT22;12030;50.376;8.762;2023-01-19T01:27:44;-1.40;99.90
23703;DHT22;12030;50.376;8.762;2023-01-19T01:30:12;-1.40;99.90
23703;DHT22;12030;50.376;8.762;2023-01-19T01:32:38;-1.40;99.90
23703;DHT22;12030;50.376;8.762;2023-01-19T01:35:05;-1.40;99.90
23703;DHT22;12030;50.376;8.762;2023-01-19T01:37:30;-1.40;99.90
23703;DHT22;12030;50.376;8.762;2023-01-19T01:39:56;-1.50;99.90
23703;DHT22;12030;50.376;8.762;2023-01-19T01:42:26;-1.50;99.90
23703;DHT22;12030;50.376;8.762;2023-01-19T01:44:57;-1.50;99.90
23703;DHT22;12030;50.376;8.762;2023-01-19T01:50:16;-1.40;99.90
23703;DHT22;12030;50.376;8.762;2023-01-19T01:52:51;-1.40;99.90
23703;DHT22;12030;50.376;8.762;2023-01-19T01:55:21;-1.40;99.90
23703;DHT22;12030;50.376;8.762;2023-01-19T01:57:53;-1.40;99.90
23703;DHT22;12030;50.376;8.762;2023-01-19T02:00:22;-1.40;99.90
23703;DHT22;12030;50.376;8.762;2023-01-19T02:02:48;-1.40;99.90
23703;DHT22;12030;50.376;8.762;2023-01-19T02:05:28;-1.40;99.90
23703;DHT22;12030;50.376;8.762;2023-01-19T02:08:16;-1.40;99.90
23703;DHT22;12030;50.376;8.762;2023-01-19T02:11:02;-1.30;99.90
23703;DHT22;12030;50.376;8.762;2023-01-19T02:13:47;-1.20;99.90
23703;DHT22;12030;50.376;8.762;2023-01-19T02:16:14;-1.20;99.90
23703;DHT22;12030;50.376;8.762;2023-01-19T02:18:40;-1.20;99.90
23703;DHT22;12030;50.376;8.762;2023-01-19T02:21:29;-1.20;99.90
23703;DHT22;12030;50.376;8.762;2023-01-19T02:23:57;-1.20;99.90
23703;DHT22;12030;50.376;8.762;2023-01-19T02:26:34;-1.20;99.90
23703;DHT22;12030;50.376;8.762;2023-01-19T02:29:03;-1.30;99.90
23703;DHT22;12030;50.376;8.762;2023-01-19T02:31:31;-1.20;99.90
23703;DHT22;12030;50.376;8.762;2023-01-19T02:33:58;-1.30;99.90
23703;DHT22;12030;50.376;8.762;2023-01-19T02:36:34;-1.30;99.90
23703;DHT22;12030;50.376;8.762;2023-01-19T02:39:02;-1.30;99.90
23703;DHT22;12030;50.376;8.762;2023-01-19T02:41:33;-1.20;99.90
23703;DHT22;12030;50.376;8.762;2023-01-19T02:44:01;-1.20;99.90
23703;DHT22;12030;50.376;8.762;2023-01-19T02:46:27;-1.20;99.90
23703;DHT22;12030;50.376;8.762;2023-01-19T02:49:00;-1.20;99.90
23703;DHT22;12030;50.376;8.762;2023-01-19T02:51:26;-1.20;99.90
23703;DHT22;12030;50.376;8.762;2023-01-19T02:59:13;-1.20;99.90
23703;DHT22;12030;50.376;8.762;2023-01-19T03:02:00;-1.20;99.90
23703;DHT22;12030;50.376;8.762;2023-01-19T03:07:13;-1.20;99.90
23703;DHT22;12030;50.376;8.762;2023-01-19T03:09:48;-1.20;99.90
23703;DHT22;12030;50.376;8.762;2023-01-19T03:12:34;-1.20;99.90
23703;DHT22;12030;50.376;8.762;2023-01-19T03:17:52;-1.20;99.90
23703;DHT22;12030;50.376;8.762;2023-01-19T03:20:22;-1.20;99.90
23703;DHT22;12030;50.376;8.762;2023-01-19T03:23:00;-1.20;99.90
23703;DHT22;12030;50.376;8.762;2023-01-19T03:25:27;-1.20;99.90
23703;DHT22;12030;50.376;8.762;2023-01-19T03:27:56;-1.30;99.90
23703;DHT22;12030;50.376;8.762;2023-01-19T03:30:27;-1.30;99.90
23703;DHT22;12030;50.376;8.762;2023-01-19T03:33:16;-1.20;99.90
23703;DHT22;12030;50.376;8.762;2023-01-19T03:35:49;-1.20;99.90
23703;DHT22;12030;50.376;8.762;2023-01-19T03:38:21;-1.20;99.90
23703;DHT22;12030;50.376;8.762;2023-01-19T03:40:51;-1.30;99.90
23703;DHT22;12030;50.376;8.762;2023-01-19T03:43:18;-1.30;99.90
23703;DHT22;12030;50.376;8.762;2023-01-19T03:45:46;-1.20;99.90
23703;DHT22;12030;50.376;8.762;2023-01-19T03:48:11;-1.20;99.90
23703;DHT22;12030;50.376;8.762;2023-01-19T03:50:37;-1.20;99.90
23703;DHT22;12030;50.376;8.762;2023-01-19T03:53:08;-1.20;99.90
23703;DHT22;12030;50.376;8.762;2023-01-19T03:55:36;-1.20;99.90
23703;DHT22;12030;50.376;8.762;2023-01-19T03:58:02;-1.20;99.90
23703;DHT22;12030;50.376;8.762;2023-01-19T04:00:28;-1.20;99.90
23703;DHT22;12030;50.376;8.762;2023-01-19T04:02:54;-1.10;99.90
23703;DHT22;12030;50.376;8.762;2023-01-19T04:05:20;-1.20;99.90
23703;DHT22;12030;50.376;8.762;2023-01-19T04:07:50;-1.20;99.90
23703;DHT22;12030;50.376;8.762;2023-01-19T04:10:17;-1.20;99.90
23703;DHT22;12030;50.376;8.762;2023-01-19T04:12:42;-1.30;99.90
23703;DHT22;12030;50.376;8.762;2023-01-19T04:15:08;-1.30;99.90
23703;DHT22;12030;50.376;8.762;2023-01-19T04:17:33;-1.30;99.90
23703;DHT22;12030;50.376;8.762;2023-01-19T04:19:59;-1.30;99.90
23703;DHT22;12030;50.376;8.762;2023-01-19T04:22:25;-1.30;99.90
23703;DHT22;12030;50.376;8.762;2023-01-19T04:24:50;-1.40;99.90
23703;DHT22;12030;50.376;8.762;2023-01-19T04:27:16;-1.20;99.90
23703;DHT22;12030;50.376;8.762;2023-01-19T04:29:42;-1.30;99.90
23703;DHT22;12030;50.376;8.762;2023-01-19T04:32:08;-1.40;99.90
23703;DHT22;12030;50.376;8.762;2023-01-19T04:34:33;-1.30;99.90
23703;DHT22;12030;50.376;8.762;2023-01-19T04:36:59;-1.40;99.90
23703;DHT22;12030;50.376;8.762;2023-01-19T04:39:25;-1.40;99.90
23703;DHT22;12030;50.376;8.762;2023-01-19T04:41:51;-1.40;99.90
23703;DHT22;12030;50.376;8.762;2023-01-19T04:44:16;-1.40;99.90
23703;DHT22;12030;50.376;8.762;2023-01-19T04:46:42;-1.40;99.90
23703;DHT22;12030;50.376;8.762;2023-01-19T04:49:08;-1.40;99.90
23703;DHT22;12030;50.376;8.762;2023-01-19T04:51:34;-1.40;99.90
23703;DHT22;12030;50.376;8.762;2023-01-19T04:54:00;-1.40;99.90
23703;DHT22;12030;50.376;8.762;2023-01-19T04:56:26;-1.50;99.90
23703;DHT22;12030;50.376;8.762;2023-01-19T04:58:52;-1.50;99.90
23703;DHT22;12030;50.376;8.762;2023-01-19T05:01:17;-1.50;99.90
23703;DHT22;12030;50.376;8.762;2023-01-19T05:03:43;-1.50;99.90
23703;DHT22;12030;50.376;8.762;2023-01-19T05:06:08;-1.50;99.90
23703;DHT22;12030;50.376;8.762;2023-01-19T05:08:34;-1.50;99.90
23703;DHT22;12030;50.376;8.762;2023-01-19T05:10:59;-1.50;99.90
23703;DHT22;12030;50.376;8.762;2023-01-19T05:13:25;-1.50;99.90
23703;DHT22;12030;50.376;8.762;2023-01-19T05:15:51;-1.50;99.90
23703;DHT22;12030;50.376;8.762;2023-01-19T05:18:17;-1.50;99.90
23703;DHT22;12030;50.376;8.762;2023-01-19T05:20:42;-1.50;99.90
23703;DHT22;12030;50.376;8.762;2023-01-19T05:23:08;-1.50;99.90
23703;DHT22;12030;50.376;8.762;2023-01-19T05:25:33;-1.50;99.90
23703;DHT22;12030;50.376;8.762;2023-01-19T05:27:59;-1.50;99.90
23703;DHT22;12030;50.376;8.762;2023-01-19T05:30:24;-1.50;99.90
23703;DHT22;12030;50.376;8.762;2023-01-19T05:32:50;-1.50;99.90
23703;DHT22;12030;50.376;8.762;2023-01-19T05:35:16;-1.50;99.90
23703;DHT22;12030;50.376;8.762;2023-01-19T05:37:41;-1.50;99.90
23703;DHT22;12030;50.376;8.762;2023-01-19T05:40:08;-1.50;99.90
23703;DHT22;12030;50.376;8.762;2023-01-19T05:42:33;-1.50;99.90
23703;DHT22;12030;50.376;8.762;2023-01-19T05:45:00;-1.50;99.90
23703;DHT22;12030;50.376;8.762;2023-01-19T05:47:28;-1.50;99.90
23703;DHT22;12030;50.376;8.762;2023-01-19T05:49:53;-1.30;99.90
23703;DHT22;12030;50.376;8.762;2023-01-19T05:52:19;-1.40;99.90
23703;DHT22;12030;50.376;8.762;2023-01-19T05:54:46;-1.40;99.90
23703;DHT22;12030;50.376;8.762;2023-01-19T05:57:12;-1.40;99.90
23703;DHT22;12030;50.376;8.762;2023-01-19T05:59:38;-1.30;99.90
23703;DHT22;12030;50.376;8.762;2023-01-19T06:02:04;-1.40;99.90
23703;DHT22;12030;50.376;8.762;2023-01-19T06:04:30;-1.30;99.90
23703;DHT22;12030;50.376;8.762;2023-01-19T06:06:56;-1.30;99.90
23703;DHT22;12030;50.376;8.762;2023-01-19T06:09:21;-1.30;99.90
23703;DHT22;12030;50.376;8.762;2023-01-19T06:11:47;-1.30;99.90
23703;DHT22;12030;50.376;8.762;2023-01-19T06:14:13;-1.20;99.90
23703;DHT22;12030;50.376;8.762;2023-01-19T06:16:38;-1.10;99.90
23703;DHT22;12030;50.376;8.762;2023-01-19T06:19:04;-1.20;99.90
23703;DHT22;12030;50.376;8.762;2023-01-19T06:21:30;-1.10;99.90
23703;DHT22;12030;50.376;8.762;2023-01-19T06:23:55;-1.10;99.90
23703;DHT22;12030;50.376;8.762;2023-01-19T06:26:21;-0.80;99.90
23703;DHT22;12030;50.376;8.762;2023-01-19T06:28:46;-0.70;99.90
23703;DHT22;12030;50.376;8.762;2023-01-19T06:31:13;-0.60;99.90
23703;DHT22;12030;50.376;8.762;2023-01-19T06:33:38;-0.60;99.90
23703;DHT22;12030;50.376;8.762;2023-01-19T06:36:04;-0.50;99.90
23703;DHT22;12030;50.376;8.762;2023-01-19T06:38:30;-0.60;99.90
23703;DHT22;12030;50.376;8.762;2023-01-19T06:40:57;-0.50;99.90
23703;DHT22;12030;50.376;8.762;2023-01-19T06:43:24;-0.50;99.90
23703;DHT22;12030;50.376;8.762;2023-01-19T06:45:49;-0.50;99.90
23703;DHT22;12030;50.376;8.762;2023-01-19T06:48:15;-0.50;99.90
23703;DHT22;12030;50.376;8.762;2023-01-19T06:50:44;-0.40;99.90
23703;DHT22;12030;50.376;8.762;2023-01-19T06:53:09;-0.40;99.90
23703;DHT22;12030;50.376;8.762;2023-01-19T06:55:35;-0.40;99.90
23703;DHT22;12030;50.376;8.762;2023-01-19T06:58:01;-0.40;99.90
23703;DHT22;12030;50.376;8.762;2023-01-19T07:00:27;-0.40;99.90
23703;DHT22;12030;50.376;8.762;2023-01-19T07:02:53;-0.40;99.90
23703;DHT22;12030;50.376;8.762;2023-01-19T07:05:19;-0.40;99.90
23703;DHT22;12030;50.376;8.762;2023-01-19T07:07:50;-0.40;99.90
23703;DHT22;12030;50.376;8.762;2023-01-19T07:10:16;-0.40;99.90
23703;DHT22;12030;50.376;8.762;2023-01-19T07:12:42;-0.50;99.90
23703;DHT22;12030;50.376;8.762;2023-01-19T07:15:10;-0.50;99.90
23703;DHT22;12030;50.376;8.762;2023-01-19T07:17:36;-0.40;99.90
23703;DHT22;12030;50.376;8.762;2023-01-19T07:20:02;-0.50;99.90
23703;DHT22;12030;50.376;8.762;2023-01-19T07:22:28;-0.40;99.90
23703;DHT22;12030;50.376;8.762;2023-01-19T07:24:53;-0.40;99.90
23703;DHT22;12030;50.376;8.762;2023-01-19T07:27:19;-0.40;99.90
23703;DHT22;12030;50.376;8.762;2023-01-19T07:29:44;-0.40;99.90
23703;DHT22;12030;50.376;8.762;2023-01-19T07:32:10;-0.40;99.90
23703;DHT22;12030;50.376;8.762;2023-01-19T07:34:36;-0.40;99.90
23703;DHT22;12030;50.376;8.762;2023-01-19T07:37:02;-0.30;99.90
23703;DHT22;12030;50.376;8.762;2023-01-19T07:39:29;-0.30;99.90
23703;DHT22;12030;50.376;8.762;2023-01-19T07:41:56;-0.30;99.90
23703;DHT22;12030;50.376;8.762;2023-01-19T07:44:22;-0.30;99.90
23703;DHT22;12030;50.376;8.762;2023-01-19T07:46:48;-0.30;99.90
23703;DHT22;12030;50.376;8.762;2023-01-19T07:49:15;-0.20;99.90
23703;DHT22;12030;50.376;8.762;2023-01-19T07:51:41;-0.10;99.90
23703;DHT22;12030;50.376;8.762;2023-01-19T07:54:06;0.00;99.90
23703;DHT22;12030;50.376;8.762;2023-01-19T07:56:32;0.10;99.90
23703;DHT22;12030;50.376;8.762;2023-01-19T07:58:58;0.20;99.90
23703;DHT22;12030;50.376;8.762;2023-01-19T08:01:23;0.20;99.90
23703;DHT22;12030;50.376;8.762;2023-01-19T08:03:49;0.30;99.90
23703;DHT22;12030;50.376;8.762;2023-01-19T08:06:22;0.40;99.90
23703;DHT22;12030;50.376;8.762;2023-01-19T08:08:49;0.60;99.90
23703;DHT22;12030;50.376;8.762;2023-01-19T08:11:14;0.70;99.90
23703;DHT22;12030;50.376;8.762;2023-01-19T08:13:40;0.80;99.90
23703;DHT22;12030;50.376;8.762;2023-01-19T08:16:06;0.80;99.90
23703;DHT22;12030;50.376;8.762;2023-01-19T08:18:32;0.90;99.90
23703;DHT22;12030;50.376;8.762;2023-01-19T08:20:58;0.90;99.90
23703;DHT22;12030;50.376;8.762;2023-01-19T08:23:24;0.90;99.90
23703;DHT22;12030;50.376;8.762;2023-01-19T08:25:50;0.90;99.90
23703;DHT22;12030;50.376;8.762;2023-01-19T08:28:16;0.90;99.90
23703;DHT22;12030;50.376;8.762;2023-01-19T08:30:42;0.90;99.90
23703;DHT22;12030;50.376;8.762;2023-01-19T08:33:09;1.00;99.90
23703;DHT22;12030;50.376;8.762;2023-01-19T08:35:39;0.90;99.90
23703;DHT22;12030;50.376;8.762;2023-01-19T08:38:06;1.00;99.90
23703;DHT22;12030;50.376;8.762;2023-01-19T08:40:37;1.00;99.90
23703;DHT22;12030;50.376;8.762;2023-01-19T08:43:09;1.10;99.90
23703;DHT22;12030;50.376;8.762;2023-01-19T08:45:36;1.20;99.90
23703;DHT22;12030;50.376;8.762;2023-01-19T08:48:03;1.20;99.90
23703;DHT22;12030;50.376;8.762;2023-01-19T08:50:31;1.30;99.90
23703;DHT22;12030;50.376;8.762;2023-01-19T08:52:58;1.40;99.90
23703;DHT22;12030;50.376;8.762;2023-01-19T08:55:24;1.50;99.90
23703;DHT22;12030;50.376;8.762;2023-01-19T08:57:51;1.70;99.90
23703;DHT22;12030;50.376;8.762;2023-01-19T09:00:18;1.70;99.90
23703;DHT22;12030;50.376;8.762;2023-01-19T09:02:44;1.80;99.90
23703;DHT22;12030;50.376;8.762;2023-01-19T09:05:09;1.80;99.90
23703;DHT22;12030;50.376;8.762;2023-01-19T09:07:35;1.90;99.90
23703;DHT22;12030;50.376;8.762;2023-01-19T09:10:02;2.00;99.90
23703;DHT22;12030;50.376;8.762;2023-01-19T09:12:28;2.00;99.90
23703;DHT22;12030;50.376;8.762;2023-01-19T09:14:53;2.20;99.90
23703;DHT22;12030;50.376;8.762;2023-01-19T09:17:19;2.30;99.90
23703;DHT22;12030;50.376;8.762;2023-01-19T09:19:44;2.40;99.90
23703;DHT22;12030;50.376;8.762;2023-01-19T09:22:10;2.30;99.90
23703;DHT22;12030;50.376;8.762;2023-01-19T09:24:35;2.30;99.90
23703;DHT22;12030;50.376;8.762;2023-01-19T09:27:01;2.20;99.90
23703;DHT22;12030;50.376;8.762;2023-01-19T09:29:26;2.20;99.90
23703;DHT22;12030;50.376;8.762;2023-01-19T09:31:52;2.20;99.90
23703;DHT22;12030;50.376;8.762;2023-01-19T09:34:17;2.20;99.90
23703;DHT22;12030;50.376;8.762;2023-01-19T09:36:44;2.30;99.90
23703;DHT22;12030;50.376;8.762;2023-01-19T09:39:10;2.30;99.90
23703;DHT22;12030;50.376;8.762;2023-01-19T09:41:37;2.50;99.90
23703;DHT22;12030;50.376;8.762;2023-01-19T09:44:04;2.40;99.90
23703;DHT22;12030;50.376;8.762;2023-01-19T09:46:40;2.40;99.90
23703;DHT22;12030;50.376;8.762;2023-01-19T09:51:40;2.40;99.90
23703;DHT22;12030;50.376;8.762;2023-01-19T09:54:20;2.50;99.90
23703;DHT22;12030;50.376;8.762;2023-01-19T09:56:48;2.50;99.90
23703;DHT22;12030;50.376;8.762;2023-01-19T09:59:21;2.50;99.90
23703;DHT22;12030;50.376;8.762;2023-01-19T10:02:06;2.50;99.90
23703;DHT22;12030;50.376;8.762;2023-01-19T10:04:40;2.60;99.90
23703;DHT22;12030;50.376;8.762;2023-01-19T10:09:45;2.50;99.90
23703;DHT22;12030;50.376;8.762;2023-01-19T10:15:16;2.40;99.90
23703;DHT22;12030;50.376;8.762;2023-01-19T10:18:06;2.40;99.90
23703;DHT22;12030;50.376;8.762;2023-01-19T10:20:40;2.30;99.90
23703;DHT22;12030;50.376;8.762;2023-01-19T10:23:20;2.40;99.90
23703;DHT22;12030;50.376;8.762;2023-01-19T10:25:47;2.40;99.90
23703;DHT22;12030;50.376;8.762;2023-01-19T10:28:14;2.30;99.90
23703;DHT22;12030;50.376;8.762;2023-01-19T10:30:41;2.30;99.90
23703;DHT22;12030;50.376;8.762;2023-01-19T10:33:11;2.40;99.90
23703;DHT22;12030;50.376;8.762;2023-01-19T10:35:37;2.30;99.90
23703;DHT22;12030;50.376;8.762;2023-01-19T10:38:03;2.40;99.90
23703;DHT22;12030;50.376;8.762;2023-01-19T10:42:57;2.30;99.90
23703;DHT22;12030;50.376;8.762;2023-01-19T10:45:28;2.40;99.90
23703;DHT22;12030;50.376;8.762;2023-01-19T10:47:58;2.40;99.90
23703;DHT22;12030;50.376;8.762;2023-01-19T10:52:57;2.50;99.90
23703;DHT22;12030;50.376;8.762;2023-01-19T10:57:50;2.60;99.90
23703;DHT22;12030;50.376;8.762;2023-01-19T11:00:37;2.60;99.90
23703;DHT22;12030;50.376;8.762;2023-01-19T11:03:07;2.70;99.90
23703;DHT22;12030;50.376;8.762;2023-01-19T11:05:46;2.70;99.90
23703;DHT22;12030;50.376;8.762;2023-01-19T11:08:22;2.70;99.90
23703;DHT22;12030;50.376;8.762;2023-01-19T11:11:00;2.90;99.90
23703;DHT22;12030;50.376;8.762;2023-01-19T11:13:28;2.90;99.90
23703;DHT22;12030;50.376;8.762;2023-01-19T11:15:56;3.00;99.90
23703;DHT22;12030;50.376;8.762;2023-01-19T11:18:27;3.10;99.90
23703;DHT22;12030;50.376;8.762;2023-01-19T11:20:56;3.20;99.90
23703;DHT22;12030;50.376;8.762;2023-01-19T11:23:38;3.30;99.90
23703;DHT22;12030;50.376;8.762;2023-01-19T11:26:08;3.40;99.90
23703;DHT22;12030;50.376;8.762;2023-01-19T11:28:42;3.50;99.90
23703;DHT22;12030;50.376;8.762;2023-01-19T11:36:23;3.60;99.90
23703;DHT22;12030;50.376;8.762;2023-01-19T11:38:52;3.50;99.90
23703;DHT22;12030;50.376;8.762;2023-01-19T11:41:34;3.60;99.90
23703;DHT22;12030;50.376;8.762;2023-01-19T11:49:41;3.70;99.90
23703;DHT22;12030;50.376;8.762;2023-01-19T11:52:27;2.70;99.90
23703;DHT22;12030;50.376;8.762;2023-01-19T11:55:04;3.60;99.90
23703;DHT22;12030;50.376;8.762;2023-01-19T11:57:31;3.70;99.90
23703;DHT22;12030;50.376;8.762;2023-01-19T11:59:56;3.70;99.90
23703;DHT22;12030;50.376;8.762;2023-01-19T12:02:31;3.80;99.90
23703;DHT22;12030;50.376;8.762;2023-01-19T12:05:11;3.80;99.90
23703;DHT22;12030;50.376;8.762;2023-01-19T12:07:37;3.80;99.90
23703;DHT22;12030;50.376;8.762;2023-01-19T12:10:26;3.70;99.90
23703;DHT22;12030;50.376;8.762;2023-01-19T12:12:53;3.70;99.90
23703;DHT22;12030;50.376;8.762;2023-01-19T12:15:27;3.70;99.90
23703;DHT22;12030;50.376;8.762;2023-01-19T12:17:57;3.70;99.90
23703;DHT22;12030;50.376;8.762;2023-01-19T12:22:58;3.70;99.90
23703;DHT22;12030;50.376;8.762;2023-01-19T12:25:39;3.70;99.90
23703;DHT22;12030;50.376;8.762;2023-01-19T12:28:11;3.60;99.90
23703;DHT22;12030;50.376;8.762;2023-01-19T12:30:38;2.50;99.90
23703;DHT22;12030;50.376;8.762;2023-01-19T12:35:58;3.60;99.90
23703;DHT22;12030;50.376;8.762;2023-01-19T12:41:36;3.40;99.90
23703;DHT22;12030;50.376;8.762;2023-01-19T12:46:37;3.40;99.90
23703;DHT22;12030;50.376;8.762;2023-01-19T12:49:05;3.40;99.90
23703;DHT22;12030;50.376;8.762;2023-01-19T12:51:34;3.20;99.90
23703;DHT22;12030;50.376;8.762;2023-01-19T12:54:00;3.20;99.90
23703;DHT22;12030;50.376;8.762;2023-01-19T12:56:31;3.30;99.90
23703;DHT22;12030;50.376;8.762;2023-01-19T12:58:58;3.30;99.90
23703;DHT22;12030;50.376;8.762;2023-01-19T13:01:24;3.20;99.90
23703;DHT22;12030;50.376;8.762;2023-01-19T13:04:04;3.20;99.90
23703;DHT22;12030;50.376;8.762;2023-01-19T13:09:28;3.20;99.90
23703;DHT22;12030;50.376;8.762;2023-01-19T13:14:42;3.10;99.90
23703;DHT22;12030;50.376;8.762;2023-01-19T13:17:23;3.20;99.90
23703;DHT22;12030;50.376;8.762;2023-01-19T13:20:04;3.20;99.90
23703;DHT22;12030;50.376;8.762;2023-01-19T13:22:50;3.20;99.90
23703;DHT22;12030;50.376;8.762;2023-01-19T13:25:31;3.20;99.90
23703;DHT22;12030;50.376;8.762;2023-01-19T13:27:58;3.30;99.90
23703;DHT22;12030;50.376;8.762;2023-01-19T13:30:26;3.30;99.90
23703;DHT22;12030;50.376;8.762;2023-01-19T13:33:02;3.30;99.90
23703;DHT22;12030;50.376;8.762;2023-01-19T13:35:29;3.20;99.90
23703;DHT22;12030;50.376;8.762;2023-01-19T13:37:56;3.20;99.90
23703;DHT22;12030;50.376;8.762;2023-01-19T13:40:24;3.20;99.90
23703;DHT22;12030;50.376;8.762;2023-01-19T13:42:53;3.30;99.90
23703;DHT22;12030;50.376;8.762;2023-01-19T13:45:31;3.30;99.90
23703;DHT22;12030;50.376;8.762;2023-01-19T13:48:00;3.30;99.90
23703;DHT22;12030;50.376;8.762;2023-01-19T13:50:29;3.40;99.90
23703;DHT22;12030;50.376;8.762;2023-01-19T13:52:56;3.40;99.90
23703;DHT22;12030;50.376;8.762;2023-01-19T13:55:27;3.40;99.90
23703;DHT22;12030;50.376;8.762;2023-01-19T13:57:53;3.40;99.90
23703;DHT22;12030;50.376;8.762;2023-01-19T14:00:24;3.40;99.90
23703;DHT22;12030;50.376;8.762;2023-01-19T14:05:31;3.30;99.90
23703;DHT22;12030;50.376;8.762;2023-01-19T14:13:17;3.40;99.90
23703;DHT22;12030;50.376;8.762;2023-01-19T14:15:45;3.50;99.90
23703;DHT22;12030;50.376;8.762;2023-01-19T14:21:02;3.40;99.90
23703;DHT22;12030;50.376;8.762;2023-01-19T14:26:00;3.20;99.90
23703;DHT22;12030;50.376;8.762;2023-01-19T14:28:42;3.20;99.90
23703;DHT22;12030;50.376;8.762;2023-01-19T14:31:22;3.30;99.90
23703;DHT22;12030;50.376;8.762;2023-01-19T14:33:50;3.20;99.90
23703;DHT22;12030;50.376;8.762;2023-01-19T14:39:21;3.20;99.90
23703;DHT22;12030;50.376;8.762;2023-01-19T14:41:48;3.20;99.90
23703;DHT22;12030;50.376;8.762;2023-01-19T14:44:19;3.20;99.90
23703;DHT22;12030;50.376;8.762;2023-01-19T14:46:48;3.20;99.90
23703;DHT22;12030;50.376;8.762;2023-01-19T14:52:02;3.20;99.90
23703;DHT22;12030;50.376;8.762;2023-01-19T14:54:37;3.20;99.90
23703;DHT22;12030;50.376;8.762;2023-01-19T14:57:04;3.20;99.90
23703;DHT22;12030;50.376;8.762;2023-01-19T14:59:30;3.10;99.90
23703;DHT22;12030;50.376;8.762;2023-01-19T15:01:56;3.10;99.90
23703;DHT22;12030;50.376;8.762;2023-01-19T15:04:21;3.20;99.90
23703;DHT22;12030;50.376;8.762;2023-01-19T15:06:47;3.10;99.90
23703;DHT22;12030;50.376;8.762;2023-01-19T15:09:14;3.20;99.90
23703;DHT22;12030;50.376;8.762;2023-01-19T15:11:40;3.10;99.90
23703;DHT22;12030;50.376;8.762;2023-01-19T15:14:12;3.10;99.90
23703;DHT22;12030;50.376;8.762;2023-01-19T15:16:39;3.10;99.90
23703;DHT22;12030;50.376;8.762;2023-01-19T15:19:05;3.20;99.90
23703;DHT22;12030;50.376;8.762;2023-01-19T15:21:30;3.20;99.90
23703;DHT22;12030;50.376;8.762;2023-01-19T15:23:56;3.10;99.90
23703;DHT22;12030;50.376;8.762;2023-01-19T15:26:24;3.70;99.90
23703;DHT22;12030;50.376;8.762;2023-01-19T15:28:50;3.10;99.90
23703;DHT22;12030;50.376;8.762;2023-01-19T15:31:24;3.10;99.90
23703;DHT22;12030;50.376;8.762;2023-01-19T15:33:50;3.00;99.90
23703;DHT22;12030;50.376;8.762;2023-01-19T15:36:17;2.90;99.90
23703;DHT22;12030;50.376;8.762;2023-01-19T15:38:44;2.90;99.90
23703;DHT22;12030;50.376;8.762;2023-01-19T15:41:27;2.90;99.90
23703;DHT22;12030;50.376;8.762;2023-01-19T15:43:54;2.80;99.90
23703;DHT22;12030;50.376;8.762;2023-01-19T15:46:20;2.90;99.90
23703;DHT22;12030;50.376;8.762;2023-01-19T15:48:47;2.90;99.90
23703;DHT22;12030;50.376;8.762;2023-01-19T15:51:15;2.90;99.90
23703;DHT22;12030;50.376;8.762;2023-01-19T15:53:41;2.90;99.90
23703;DHT22;12030;50.376;8.762;2023-01-19T15:56:16;2.90;99.90
23703;DHT22;12030;50.376;8.762;2023-01-19T15:58:43;3.00;99.90
23703;DHT22;12030;50.376;8.762;2023-01-19T16:01:12;2.90;99.90
23703;DHT22;12030;50.376;8.762;2023-01-19T16:03:38;2.90;99.90
23703;DHT22;12030;50.376;8.762;2023-01-19T16:06:04;3.00;99.90
23703;DHT22;12030;50.376;8.762;2023-01-19T16:08:30;2.90;99.90
23703;DHT22;12030;50.376;8.762;2023-01-19T16:10:55;2.90;99.90
23703;DHT22;12030;50.376;8.762;2023-01-19T16:13:21;2.90;99.90
23703;DHT22;12030;50.376;8.762;2023-01-19T16:15:46;2.90;99.90
23703;DHT22;12030;50.376;8.762;2023-01-19T16:18:12;2.90;99.90
23703;DHT22;12030;50.376;8.762;2023-01-19T16:20:37;2.90;99.90
23703;DHT22;12030;50.376;8.762;2023-01-19T16:23:03;2.90;99.90
23703;DHT22;12030;50.376;8.762;2023-01-19T16:25:28;2.80;99.90
23703;DHT22;12030;50.376;8.762;2023-01-19T16:27:55;2.90;99.90
23703;DHT22;12030;50.376;8.762;2023-01-19T16:30:21;2.80;99.90
23703;DHT22;12030;50.376;8.762;2023-01-19T16:32:47;2.80;99.90
23703;DHT22;12030;50.376;8.762;2023-01-19T16:35:12;2.80;99.90
23703;DHT22;12030;50.376;8.762;2023-01-19T16:37:40;2.90;99.90
23703;DHT22;12030;50.376;8.762;2023-01-19T16:40:06;2.90;99.90
23703;DHT22;12030;50.376;8.762;2023-01-19T16:42:32;2.90;99.90
23703;DHT22;12030;50.376;8.762;2023-01-19T16:44:57;2.80;99.90
23703;DHT22;12030;50.376;8.762;2023-01-19T16:47:23;2.80;99.90
23703;DHT22;12030;50.376;8.762;2023-01-19T16:49:49;2.70;99.90
23703;DHT22;12030;50.376;8.762;2023-01-19T16:52:14;2.70;99.90
23703;DHT22;12030;50.376;8.762;2023-01-19T16:54:41;2.60;99.90
23703;DHT22;12030;50.376;8.762;2023-01-19T16:57:08;2.60;99.90
23703;DHT22;12030;50.376;8.762;2023-01-19T16:59:34;2.70;99.90
23703;DHT22;12030;50.376;8.762;2023-01-19T17:01:59;2.60;99.90